createdAt,value
2023-05-02T00:00:31.266Z,0.52
2023-05-02T00:01:31.407Z,0.52
2023-05-02T00:02:31.535Z,0.52
2023-05-02T00:03:31.518Z,0.52
2023-05-02T00:04:31.528Z,0.51
2023-05-02T00:05:31.551Z,0.51
2023-05-02T00:06:31.742Z,0.51
2023-05-02T00:07:31.756Z,0.53
2023-05-02T00:08:31.739Z,0.51
2023-05-02T00:09:31.977Z,0.52
2023-05-02T00:10:31.866Z,0.52
2023-05-02T00:11:31.907Z,0.52
2023-05-02T00:12:31.981Z,0.52
2023-05-02T00:13:32.031Z,0.53
2023-05-02T00:14:32.091Z,0.52
2023-05-02T00:15:32.154Z,0.52
2023-05-02T00:16:32.290Z,0.53
2023-05-02T00:17:32.505Z,0.51
2023-05-02T00:18:32.332Z,0.52
2023-05-02T00:19:32.380Z,0.52
2023-05-02T00:20:32.445Z,0.52
2023-05-02T00:21:32.496Z,0.52
2023-05-02T00:22:32.535Z,0.53
2023-05-02T00:23:32.602Z,0.51
2023-05-02T00:24:32.645Z,0.52
2023-05-02T00:25:32.716Z,0.51
2023-05-02T00:26:32.773Z,0.52
2023-05-02T00:27:32.855Z,0.51
2023-05-02T00:28:32.895Z,0.52
2023-05-02T00:29:32.948Z,0.52
2023-05-02T00:30:33.993Z,0.51
2023-05-02T00:31:33.108Z,0.52
2023-05-02T00:32:33.144Z,0.52
2023-05-02T00:33:33.180Z,0.52
2023-05-02T00:34:33.980Z,0.52
2023-05-02T00:35:33.297Z,0.52
2023-05-02T00:36:33.343Z,0.52
2023-05-02T00:37:33.390Z,0.51
2023-05-02T00:38:33.406Z,0.52
2023-05-02T00:39:33.416Z,0.51
2023-05-02T00:40:33.395Z,0.50
2023-05-02T00:41:33.422Z,0.51
2023-05-02T00:42:33.395Z,0.51
2023-05-02T00:43:33.411Z,0.52
2023-05-02T00:44:33.393Z,0.51
2023-05-02T00:45:33.374Z,0.51
2023-05-02T00:46:33.402Z,0.52
2023-05-02T00:47:33.426Z,0.52
2023-05-02T00:48:33.383Z,0.51
2023-05-02T00:49:33.443Z,0.51
2023-05-02T00:50:33.362Z,0.51
2023-05-02T00:51:33.347Z,0.51
2023-05-02T00:52:33.333Z,0.51
2023-05-02T00:53:33.325Z,0.51
2023-05-02T00:54:33.318Z,0.51
2023-05-02T00:55:33.295Z,0.50
2023-05-02T00:56:33.288Z,0.51
2023-05-02T00:57:33.993Z,0.52
2023-05-02T00:58:33.270Z,0.52
2023-05-02T00:59:33.256Z,0.52
2023-05-02T01:00:33.251Z,0.52
2023-05-02T01:01:33.537Z,0.52
2023-05-02T01:02:33.332Z,0.53
2023-05-02T01:03:33.348Z,0.52
2023-05-02T01:04:33.232Z,0.52
2023-05-02T01:05:33.288Z,0.51
2023-05-02T01:06:33.239Z,0.52
2023-05-02T01:07:34.071Z,0.51
2023-05-02T01:08:33.208Z,0.51
2023-05-02T01:09:33.501Z,0.51
2023-05-02T01:10:33.204Z,0.51
2023-05-02T01:11:33.201Z,0.52
2023-05-02T01:12:33.994Z,0.52
2023-05-02T01:13:33.180Z,0.52
2023-05-02T01:14:33.171Z,0.51
2023-05-02T01:15:33.158Z,0.51
2023-05-02T01:16:33.194Z,0.50
2023-05-02T01:17:33.159Z,0.52
2023-05-02T01:18:33.138Z,0.52
2023-05-02T01:19:33.149Z,0.51
2023-05-02T01:20:33.150Z,0.50
2023-05-02T01:21:33.190Z,0.53
2023-05-02T01:22:33.195Z,0.50
2023-05-02T01:23:33.216Z,0.51
2023-05-02T01:24:33.223Z,0.52
2023-05-02T01:25:33.237Z,0.50
2023-05-02T01:26:33.270Z,0.52
2023-05-02T01:27:33.250Z,0.52
2023-05-02T01:28:33.239Z,0.52
2023-05-02T01:29:33.238Z,0.52
2023-05-02T01:30:34.006Z,0.53
2023-05-02T01:31:33.325Z,0.52
2023-05-02T01:32:33.272Z,0.52
2023-05-02T01:33:33.246Z,0.52
2023-05-02T01:34:33.359Z,0.52
2023-05-02T01:35:33.298Z,0.52
2023-05-02T01:36:33.358Z,0.53
2023-05-02T01:37:33.299Z,0.52
2023-05-02T01:38:33.294Z,0.52
2023-05-02T01:39:33.342Z,0.52
2023-05-02T01:40:33.351Z,0.51
2023-05-02T01:41:33.330Z,0.52
2023-05-02T01:42:33.346Z,0.53
2023-05-02T01:43:33.353Z,0.50
2023-05-02T01:44:33.375Z,0.52
2023-05-02T01:45:33.416Z,0.51
2023-05-02T01:46:33.435Z,0.52
2023-05-02T01:47:33.412Z,0.52
2023-05-02T01:48:33.380Z,0.52
2023-05-02T01:49:33.387Z,0.52
2023-05-02T01:50:33.373Z,0.53
2023-05-02T01:51:33.382Z,0.52
2023-05-02T01:52:33.370Z,0.53
2023-05-02T01:53:33.376Z,0.53
2023-05-02T01:54:33.377Z,0.52
2023-05-02T01:55:33.368Z,0.51
2023-05-02T01:56:33.354Z,0.52
2023-05-02T01:57:33.356Z,0.52
2023-05-02T01:58:33.414Z,0.52
2023-05-02T01:59:33.342Z,0.52
2023-05-02T02:00:33.348Z,0.52
2023-05-02T02:01:33.407Z,0.51
2023-05-02T02:02:33.319Z,0.51
2023-05-02T02:03:33.378Z,0.51
2023-05-02T02:04:33.358Z,0.51
2023-05-02T02:05:33.387Z,0.51
2023-05-02T02:06:33.346Z,0.50
2023-05-02T02:07:33.331Z,0.51
2023-05-02T02:08:33.345Z,0.52
2023-05-02T02:09:33.362Z,0.52
2023-05-02T02:10:33.386Z,0.51
2023-05-02T02:11:33.390Z,0.51
2023-05-02T02:12:33.386Z,0.53
2023-05-02T02:13:33.380Z,0.52
2023-05-02T02:14:33.387Z,0.52
2023-05-02T02:15:33.410Z,0.52
2023-05-02T02:16:33.452Z,0.52
2023-05-02T02:17:33.439Z,0.52
2023-05-02T02:18:33.404Z,0.52
2023-05-02T02:19:33.443Z,0.53
2023-05-02T02:20:33.437Z,0.53
2023-05-02T02:21:33.400Z,0.52
2023-05-02T02:22:33.397Z,0.52
2023-05-02T02:23:33.485Z,0.52
2023-05-02T02:24:33.395Z,0.52
2023-05-02T02:25:33.539Z,0.52
2023-05-02T02:26:33.412Z,0.52
2023-05-02T02:27:34.022Z,0.52
2023-05-02T02:28:33.405Z,0.51
2023-05-02T02:29:33.408Z,0.52
2023-05-02T02:30:33.583Z,0.52
2023-05-02T02:31:33.464Z,0.52
2023-05-02T02:32:33.442Z,0.52
2023-05-02T02:33:33.430Z,0.52
2023-05-02T02:34:33.488Z,0.52
2023-05-02T02:35:33.510Z,0.53
2023-05-02T02:36:33.422Z,0.52
2023-05-02T02:37:33.416Z,0.52
2023-05-02T02:38:33.556Z,0.53
2023-05-02T02:39:33.420Z,0.51
2023-05-02T02:40:33.411Z,0.51
2023-05-02T02:41:33.402Z,0.51
2023-05-02T02:42:33.402Z,0.51
2023-05-02T02:43:33.393Z,0.52
2023-05-02T02:44:33.393Z,0.52
2023-05-02T02:45:33.459Z,0.51
2023-05-02T02:46:33.383Z,0.51
2023-05-02T02:47:33.446Z,0.52
2023-05-02T02:48:33.448Z,0.52
2023-05-02T02:49:33.451Z,0.51
2023-05-02T02:50:33.373Z,0.52
2023-05-02T02:51:33.383Z,0.53
2023-05-02T02:52:33.375Z,0.52
2023-05-02T02:53:33.368Z,0.51
2023-05-02T02:54:33.398Z,0.51
2023-05-02T02:55:33.391Z,0.52
2023-05-02T02:56:33.381Z,0.51
2023-05-02T02:57:33.452Z,0.51
2023-05-02T02:58:33.367Z,0.51
2023-05-02T02:59:33.377Z,0.52
2023-05-02T03:00:33.373Z,0.51
2023-05-02T03:01:33.464Z,0.51
2023-05-02T03:02:33.578Z,0.52
2023-05-02T03:03:33.518Z,0.52
2023-05-02T03:04:33.356Z,0.52
2023-05-02T03:05:34.064Z,0.51
2023-05-02T03:06:33.426Z,0.51
2023-05-02T03:07:34.046Z,0.52
2023-05-02T03:08:33.393Z,0.51
2023-05-02T03:09:33.575Z,0.51
2023-05-02T03:10:33.410Z,0.52
2023-05-02T03:11:33.407Z,0.51
2023-05-02T03:12:33.453Z,0.52
2023-05-02T03:13:33.436Z,0.51
2023-05-02T03:14:33.406Z,0.51
2023-05-02T03:15:33.423Z,0.52
2023-05-02T03:16:33.513Z,0.52
2023-05-02T03:17:33.476Z,0.51
2023-05-02T03:18:33.437Z,0.52
2023-05-02T03:19:33.475Z,0.51
2023-05-02T03:20:33.561Z,0.52
2023-05-02T03:21:33.497Z,0.52
2023-05-02T03:22:33.496Z,0.52
2023-05-02T03:23:33.508Z,0.52
2023-05-02T03:24:33.514Z,0.51
2023-05-02T03:25:33.530Z,0.52
2023-05-02T03:26:33.644Z,0.51
2023-05-02T03:27:33.578Z,0.52
2023-05-02T03:28:33.608Z,0.52
2023-05-02T03:29:33.618Z,0.53
2023-05-02T03:30:33.636Z,0.52
2023-05-02T03:31:33.715Z,0.51
2023-05-02T03:32:33.767Z,0.51
2023-05-02T03:33:33.778Z,0.52
2023-05-02T03:34:33.779Z,0.51
2023-05-02T03:35:33.816Z,0.52
2023-05-02T03:36:33.854Z,0.52
2023-05-02T03:37:33.905Z,0.51
2023-05-02T03:38:33.953Z,0.52
2023-05-02T03:39:34.011Z,0.52
2023-05-02T03:40:34.033Z,0.52
2023-05-02T03:41:34.071Z,0.52
2023-05-02T03:42:34.116Z,0.52
2023-05-02T03:43:34.153Z,0.51
2023-05-02T03:44:34.202Z,0.52
2023-05-02T03:45:34.258Z,0.52
2023-05-02T03:46:34.418Z,0.52
2023-05-02T03:47:34.402Z,0.53
2023-05-02T03:48:34.414Z,0.51
2023-05-02T03:49:34.476Z,0.51
2023-05-02T03:50:34.535Z,0.51
2023-05-02T03:51:34.607Z,0.52
2023-05-02T03:52:34.648Z,0.51
2023-05-02T03:53:34.691Z,0.52
2023-05-02T03:54:34.763Z,0.52
2023-05-02T03:55:34.806Z,0.52
2023-05-02T03:56:34.870Z,0.52
2023-05-02T03:57:34.984Z,0.52
2023-05-02T03:58:34.982Z,0.51
2023-05-02T03:59:35.034Z,0.52
2023-05-02T04:00:35.091Z,0.52
2023-05-02T04:01:35.194Z,0.51
2023-05-02T04:02:35.307Z,0.52
2023-05-02T04:03:35.354Z,0.53
2023-05-02T04:04:35.382Z,0.52
2023-05-02T04:05:35.373Z,0.52
2023-05-02T04:06:35.573Z,0.53
2023-05-02T04:07:35.481Z,0.52
2023-05-02T04:08:35.519Z,0.52
2023-05-02T04:09:35.669Z,0.52
2023-05-02T04:10:35.636Z,0.52
2023-05-02T04:11:36.581Z,0.53
2023-05-02T04:12:35.743Z,0.52
2023-05-02T04:13:35.802Z,0.53
2023-05-02T04:14:35.862Z,0.51
2023-05-02T04:15:35.915Z,0.52
2023-05-02T04:16:35.994Z,0.51
2023-05-02T04:17:36.037Z,0.51
2023-05-02T04:18:36.067Z,0.52
2023-05-02T04:19:36.131Z,0.51
2023-05-02T04:20:36.187Z,0.52
2023-05-02T04:21:36.240Z,0.52
2023-05-02T04:22:36.288Z,0.50
2023-05-02T04:23:36.354Z,0.51
2023-05-02T04:24:36.403Z,0.52
2023-05-02T04:25:36.458Z,0.52
2023-05-02T04:26:36.498Z,0.52
2023-05-02T04:27:36.546Z,0.52
2023-05-02T04:28:36.601Z,0.52
2023-05-02T04:29:36.663Z,0.52
2023-05-02T04:30:36.767Z,0.51
2023-05-02T04:31:37.618Z,0.52
2023-05-02T04:32:36.823Z,0.52
2023-05-02T04:33:36.852Z,0.52
2023-05-02T04:34:36.896Z,0.52
2023-05-02T04:35:36.949Z,0.51
2023-05-02T04:36:36.997Z,0.52
2023-05-02T04:37:37.056Z,0.52
2023-05-02T04:38:37.104Z,0.51
2023-05-02T04:39:37.582Z,0.52
2023-05-02T04:40:37.209Z,0.51
2023-05-02T04:41:37.253Z,0.51
2023-05-02T04:42:37.318Z,0.52
2023-05-02T04:43:37.367Z,0.53
2023-05-02T04:44:37.423Z,0.52
2023-05-02T04:45:37.462Z,0.52
2023-05-02T04:46:37.564Z,0.52
2023-05-02T04:47:37.599Z,0.52
2023-05-02T04:48:37.615Z,0.52
2023-05-02T04:49:37.656Z,0.53
2023-05-02T04:50:37.716Z,0.53
2023-05-02T04:51:37.769Z,0.52
2023-05-02T04:52:37.815Z,0.51
2023-05-02T04:53:37.865Z,0.52
2023-05-02T04:54:37.921Z,0.52
2023-05-02T04:55:37.973Z,0.52
2023-05-02T04:56:38.032Z,0.52
2023-05-02T04:57:38.066Z,0.52
2023-05-02T04:58:38.120Z,0.51
2023-05-02T04:59:38.192Z,0.50
2023-05-02T05:00:38.238Z,0.51
2023-05-02T05:01:38.332Z,0.51
2023-05-02T05:02:38.426Z,0.53
2023-05-02T05:03:38.481Z,0.53
2023-05-02T05:04:38.482Z,0.52
2023-05-02T05:05:38.526Z,0.52
2023-05-02T05:06:38.597Z,0.51
2023-05-02T05:07:38.633Z,0.52
2023-05-02T05:08:38.683Z,0.52
2023-05-02T05:09:39.108Z,0.52
2023-05-02T05:10:38.783Z,0.52
2023-05-02T05:11:38.843Z,0.51
2023-05-02T05:12:38.921Z,0.52
2023-05-02T05:13:38.943Z,0.51
2023-05-02T05:14:39.063Z,0.53
2023-05-02T05:15:39.049Z,0.52
2023-05-02T05:16:39.183Z,0.52
2023-05-02T05:17:39.205Z,0.50
2023-05-02T05:18:39.210Z,0.52
2023-05-02T05:19:39.279Z,0.52
2023-05-02T05:20:39.327Z,0.51
2023-05-02T05:21:39.377Z,0.51
2023-05-02T05:22:39.428Z,0.51
2023-05-02T05:23:39.474Z,0.52
2023-05-02T05:24:39.527Z,0.53
2023-05-02T05:25:39.584Z,0.54
2023-05-02T05:26:39.641Z,0.55
2023-05-02T05:27:39.736Z,0.55
2023-05-02T05:28:39.757Z,0.55
2023-05-02T05:29:39.803Z,0.54
2023-05-02T05:30:39.854Z,0.57
2023-05-02T05:31:39.928Z,0.57
2023-05-02T05:32:39.966Z,0.58
2023-05-02T05:33:39.992Z,0.57
2023-05-02T05:34:40.016Z,0.57
2023-05-02T05:35:40.117Z,0.57
2023-05-02T05:36:40.150Z,0.58
2023-05-02T05:37:41.162Z,0.56
2023-05-02T05:38:40.229Z,0.56
2023-05-02T05:39:40.368Z,0.57
2023-05-02T05:40:41.062Z,0.58
2023-05-02T05:41:40.390Z,0.58
2023-05-02T05:42:40.450Z,0.59
2023-05-02T05:43:40.502Z,0.59
2023-05-02T05:44:40.561Z,0.58
2023-05-02T05:45:40.622Z,0.58
2023-05-02T05:46:40.726Z,0.59
2023-05-02T05:47:40.813Z,0.59
2023-05-02T05:48:40.847Z,0.58
2023-05-02T05:49:40.835Z,0.58
2023-05-02T05:50:40.887Z,0.58
2023-05-02T05:51:40.948Z,0.59
2023-05-02T05:52:41.017Z,0.58
2023-05-02T05:53:41.059Z,0.57
2023-05-02T05:54:41.113Z,0.59
2023-05-02T05:55:42.329Z,0.59
2023-05-02T05:56:41.227Z,0.58
2023-05-02T05:57:41.261Z,0.58
2023-05-02T05:58:41.404Z,0.58
2023-05-02T05:59:41.375Z,0.58
2023-05-02T06:00:41.421Z,0.59
2023-05-02T06:01:41.482Z,0.60
2023-05-02T06:02:42.257Z,0.57
2023-05-02T06:03:41.747Z,0.59
2023-05-02T06:04:41.673Z,0.58
2023-05-02T06:05:41.680Z,0.58
2023-05-02T06:06:41.755Z,0.58
2023-05-02T06:07:41.788Z,0.58
2023-05-02T06:08:41.837Z,0.59
2023-05-02T06:09:42.634Z,0.59
2023-05-02T06:10:41.945Z,0.59
2023-05-02T06:11:41.995Z,0.60
2023-05-02T06:12:42.049Z,0.61
2023-05-02T06:13:42.187Z,0.60
2023-05-02T06:14:42.180Z,0.59
2023-05-02T06:15:42.240Z,0.59
2023-05-02T06:16:42.513Z,0.59
2023-05-02T06:17:42.338Z,0.60
2023-05-02T06:18:42.414Z,0.60
2023-05-02T06:19:42.417Z,0.61
2023-05-02T06:20:42.471Z,0.58
2023-05-02T06:21:42.515Z,0.60
2023-05-02T06:22:42.624Z,0.59
2023-05-02T06:23:42.617Z,0.60
2023-05-02T06:24:42.676Z,0.60
2023-05-02T06:25:42.746Z,0.60
2023-05-02T06:26:42.775Z,0.60
2023-05-02T06:27:42.833Z,0.60
2023-05-02T06:28:42.891Z,0.59
2023-05-02T06:29:43.045Z,0.62
2023-05-02T06:30:43.009Z,0.58
2023-05-02T06:31:44.148Z,0.58
2023-05-02T06:32:42.981Z,0.59
2023-05-02T06:33:43.615Z,0.59
2023-05-02T06:34:42.938Z,0.59
2023-05-02T06:35:42.929Z,0.60
2023-05-02T06:36:42.918Z,0.59
2023-05-02T06:37:43.013Z,0.61
2023-05-02T06:38:43.713Z,0.60
2023-05-02T06:39:42.973Z,0.60
2023-05-02T06:40:43.011Z,0.60
2023-05-02T06:41:43.138Z,0.60
2023-05-02T06:42:43.145Z,0.59
2023-05-02T06:43:43.178Z,0.59
2023-05-02T06:44:43.227Z,0.58
2023-05-02T06:45:43.358Z,0.58
2023-05-02T06:46:43.390Z,0.58
2023-05-02T06:47:43.456Z,0.58
2023-05-02T06:48:43.522Z,0.57
2023-05-02T06:49:43.505Z,0.59
2023-05-02T06:50:43.583Z,0.59
2023-05-02T06:51:43.718Z,0.58
2023-05-02T06:52:43.690Z,0.59
2023-05-02T06:53:43.789Z,0.59
2023-05-02T06:54:44.796Z,0.60
2023-05-02T06:55:43.843Z,0.59
2023-05-02T06:56:43.902Z,0.58
2023-05-02T06:57:43.974Z,0.57
2023-05-02T06:58:44.021Z,0.58
2023-05-02T06:59:44.085Z,0.56
2023-05-02T07:00:44.202Z,0.58
2023-05-02T07:01:44.194Z,0.58
2023-05-02T07:02:44.279Z,0.58
2023-05-02T07:03:44.317Z,0.56
2023-05-02T07:04:44.417Z,0.58
2023-05-02T07:05:44.426Z,0.58
2023-05-02T07:06:44.564Z,0.58
2023-05-02T07:07:44.585Z,0.58
2023-05-02T07:08:44.575Z,0.58
2023-05-02T07:09:44.635Z,0.58
2023-05-02T07:10:44.683Z,0.57
2023-05-02T07:11:44.732Z,0.57
2023-05-02T07:12:44.789Z,0.58
2023-05-02T07:13:44.856Z,0.56
2023-05-02T07:14:44.905Z,0.57
2023-05-02T07:15:45.636Z,0.57
2023-05-02T07:16:45.107Z,0.56
2023-05-02T07:17:45.097Z,0.58
2023-05-02T07:18:45.101Z,0.57
2023-05-02T07:19:45.781Z,0.58
2023-05-02T07:20:45.206Z,0.59
2023-05-02T07:21:45.257Z,0.60
2023-05-02T07:22:45.320Z,0.66
2023-05-02T07:23:45.366Z,0.71
2023-05-02T07:24:45.422Z,0.77
2023-05-02T07:25:45.443Z,0.85
2023-05-02T07:26:45.483Z,0.92
2023-05-02T07:27:45.515Z,0.98
2023-05-02T07:28:45.531Z,1.08
2023-05-02T07:29:45.554Z,1.17
2023-05-02T07:30:45.700Z,1.29
2023-05-02T07:31:45.628Z,1.38
2023-05-02T07:32:45.595Z,1.51
2023-05-02T07:33:45.571Z,1.62
2023-05-02T07:34:45.577Z,1.78
2023-05-02T07:35:45.558Z,2.13
2023-05-02T07:36:45.555Z,2.33
2023-05-02T07:37:45.609Z,2.49
2023-05-02T07:38:45.566Z,2.70
2023-05-02T07:39:45.524Z,2.99
2023-05-02T07:40:45.515Z,3.20
2023-05-02T07:41:45.502Z,3.49
2023-05-02T07:42:45.515Z,3.81
2023-05-02T07:43:45.530Z,4.10
2023-05-02T07:44:45.537Z,4.37
2023-05-02T07:45:45.615Z,4.77
2023-05-02T07:46:45.700Z,5.14
2023-05-02T07:47:45.605Z,5.39
2023-05-02T07:48:46.085Z,5.69
2023-05-02T07:49:45.620Z,6.18
2023-05-02T07:50:45.649Z,6.48
2023-05-02T07:51:45.738Z,6.96
2023-05-02T07:52:45.728Z,7.38
2023-05-02T07:53:45.777Z,7.73
2023-05-02T07:54:45.839Z,8.12
2023-05-02T07:55:45.929Z,8.52
2023-05-02T07:56:45.903Z,9.05
2023-05-02T07:57:45.959Z,9.58
2023-05-02T07:58:46.048Z,9.95
2023-05-02T07:59:46.037Z,10.34
2023-05-02T08:00:46.688Z,10.59
2023-05-02T08:01:46.121Z,11.37
2023-05-02T08:02:46.384Z,11.57
2023-05-02T08:03:46.328Z,11.73
2023-05-02T08:04:46.280Z,12.40
2023-05-02T08:05:46.271Z,12.72
2023-05-02T08:06:46.333Z,13.34
2023-05-02T08:07:46.313Z,13.97
2023-05-02T08:08:46.343Z,14.25
2023-05-02T08:09:46.380Z,14.56
2023-05-02T08:10:46.400Z,15.17
2023-05-02T08:11:46.420Z,15.65
2023-05-02T08:12:46.439Z,16.00
2023-05-02T08:13:46.467Z,16.00
2023-05-02T08:14:47.164Z,16.43
2023-05-02T08:15:46.656Z,15.56
2023-05-02T08:16:46.885Z,7.62
2023-05-02T08:17:46.570Z,4.51
2023-05-02T08:18:46.579Z,2.34
2023-05-02T08:19:46.582Z,1.44
2023-05-02T08:20:46.606Z,1.05
2023-05-02T08:21:46.670Z,0.81
2023-05-02T08:22:46.665Z,0.65
2023-05-02T08:23:46.687Z,0.56
2023-05-02T08:24:46.734Z,0.49
2023-05-02T08:25:46.768Z,0.50
2023-05-02T08:26:46.809Z,0.50
2023-05-02T08:27:46.883Z,0.50
2023-05-02T08:28:46.918Z,0.59
2023-05-02T08:29:46.982Z,0.66
2023-05-02T08:30:47.017Z,0.75
2023-05-02T08:31:47.090Z,0.88
2023-05-02T08:32:47.248Z,1.00
2023-05-02T08:33:47.075Z,1.05
2023-05-02T08:34:47.730Z,1.14
2023-05-02T08:35:47.172Z,1.24
2023-05-02T08:36:47.317Z,1.28
2023-05-02T08:37:47.193Z,1.29
2023-05-02T08:38:47.199Z,1.37
2023-05-02T08:39:47.187Z,1.43
2023-05-02T08:40:47.232Z,1.51
2023-05-02T08:41:47.239Z,1.60
2023-05-02T08:42:47.287Z,1.71
2023-05-02T08:43:47.345Z,1.82
2023-05-02T08:44:47.377Z,1.91
2023-05-02T08:45:47.425Z,2.09
2023-05-02T08:46:47.536Z,2.14
2023-05-02T08:47:47.567Z,2.37
2023-05-02T08:48:47.679Z,2.41
2023-05-02T08:49:47.603Z,2.59
2023-05-02T08:50:47.616Z,2.77
2023-05-02T08:51:47.625Z,2.92
2023-05-02T08:52:48.173Z,3.18
2023-05-02T08:53:48.171Z,3.44
2023-05-02T08:54:47.681Z,3.59
2023-05-02T08:55:47.768Z,3.83
2023-05-02T08:56:47.704Z,3.98
2023-05-02T08:57:47.733Z,4.30
2023-05-02T08:58:47.729Z,4.54
2023-05-02T08:59:47.795Z,4.67
2023-05-02T09:00:47.877Z,4.97
2023-05-02T09:01:47.788Z,5.10
2023-05-02T09:02:47.842Z,5.32
2023-05-02T09:03:47.872Z,5.40
2023-05-02T09:04:47.826Z,5.61
2023-05-02T09:05:47.765Z,6.02
2023-05-02T09:06:47.850Z,6.02
2023-05-02T09:07:47.776Z,6.27
2023-05-02T09:08:48.691Z,6.58
2023-05-02T09:09:47.754Z,6.77
2023-05-02T09:10:47.759Z,7.06
2023-05-02T09:11:47.742Z,7.44
2023-05-02T09:12:47.756Z,7.91
2023-05-02T09:13:47.796Z,8.20
2023-05-02T09:14:47.695Z,8.82
2023-05-02T09:15:47.690Z,9.26
2023-05-02T09:16:47.808Z,9.61
2023-05-02T09:17:47.719Z,10.15
2023-05-02T09:18:47.659Z,10.32
2023-05-02T09:19:47.648Z,10.59
2023-05-02T09:20:47.649Z,10.75
2023-05-02T09:21:47.622Z,11.21
2023-05-02T09:22:47.617Z,12.06
2023-05-02T09:23:47.642Z,12.43
2023-05-02T09:24:47.664Z,12.98
2023-05-02T09:25:47.692Z,13.74
2023-05-02T09:26:47.728Z,13.95
2023-05-02T09:27:47.784Z,14.88
2023-05-02T09:28:47.896Z,14.95
2023-05-02T09:29:47.867Z,16.02
2023-05-02T09:30:48.208Z,16.64
2023-05-02T09:31:55.694Z,16.90
2023-05-02T09:32:48.974Z,16.95
2023-05-02T09:33:47.888Z,17.20
2023-05-02T09:34:47.932Z,17.72
2023-05-02T09:35:47.851Z,18.53
2023-05-02T09:36:47.823Z,20.40
2023-05-02T09:37:47.794Z,21.13
2023-05-02T09:38:47.774Z,21.65
2023-05-02T09:39:47.738Z,22.40
2023-05-02T09:40:47.714Z,23.30
2023-05-02T09:41:47.684Z,24.24
2023-05-02T09:42:47.676Z,24.60
2023-05-02T09:43:47.709Z,25.28
2023-05-02T09:44:47.722Z,26.36
2023-05-02T09:45:47.762Z,27.07
2023-05-02T09:46:47.776Z,27.87
2023-05-02T09:47:47.835Z,29.07
2023-05-02T09:48:47.801Z,29.55
2023-05-02T09:49:47.809Z,30.95
2023-05-02T09:50:47.824Z,31.79
2023-05-02T09:51:47.833Z,31.62
2023-05-02T09:52:47.861Z,32.24
2023-05-02T09:53:47.881Z,32.67
2023-05-02T09:54:47.968Z,32.34
2023-05-02T09:55:47.943Z,32.44
2023-05-02T09:56:47.990Z,32.60
2023-05-02T09:57:48.024Z,31.65
2023-05-02T09:58:48.134Z,30.45
2023-05-02T09:59:48.125Z,29.33
2023-05-02T10:00:48.146Z,26.96
2023-05-02T10:01:48.151Z,24.99
2023-05-02T10:02:48.225Z,23.26
2023-05-02T10:03:48.284Z,21.00
2023-05-02T10:04:48.246Z,19.67
2023-05-02T10:05:48.315Z,19.16
2023-05-02T10:06:48.384Z,18.88
2023-05-02T10:07:51.192Z,18.96
2023-05-02T10:08:48.368Z,19.00
2023-05-02T10:09:48.334Z,19.34
2023-05-02T10:10:48.316Z,20.00
2023-05-02T10:11:48.295Z,19.49
2023-05-02T10:12:48.711Z,18.43
2023-05-02T10:13:48.312Z,18.70
2023-05-02T10:14:48.214Z,18.66
2023-05-02T10:15:48.211Z,17.82
2023-05-02T10:16:48.181Z,18.10
2023-05-02T10:17:48.225Z,18.28
2023-05-02T10:18:48.127Z,17.75
2023-05-02T10:19:48.115Z,17.37
2023-05-02T10:20:48.209Z,17.84
2023-05-02T10:21:48.072Z,18.06
2023-05-02T10:22:48.092Z,18.17
2023-05-02T10:23:48.149Z,18.44
2023-05-02T10:24:48.014Z,18.47
2023-05-02T10:25:48.124Z,18.22
2023-05-02T10:26:47.973Z,18.08
2023-05-02T10:27:47.963Z,18.43
2023-05-02T10:28:47.950Z,18.17
2023-05-02T10:29:47.947Z,18.08
2023-05-02T10:30:47.931Z,17.98
2023-05-02T10:31:47.930Z,17.51
2023-05-02T10:32:47.923Z,17.52
2023-05-02T10:33:47.871Z,17.35
2023-05-02T10:34:48.714Z,17.48
2023-05-02T10:35:47.841Z,16.90
2023-05-02T10:36:47.818Z,16.70
2023-05-02T10:37:47.845Z,16.98
2023-05-02T10:38:47.790Z,16.62
2023-05-02T10:39:47.765Z,16.62
2023-05-02T10:40:47.744Z,16.57
2023-05-02T10:41:47.737Z,16.50
2023-05-02T10:42:47.711Z,16.02
2023-05-02T10:43:47.689Z,16.09
2023-05-02T10:44:47.718Z,16.22
2023-05-02T10:45:47.782Z,15.95
2023-05-02T10:46:47.835Z,15.66
2023-05-02T10:47:47.904Z,15.71
2023-05-02T10:48:47.904Z,15.43
2023-05-02T10:49:47.952Z,15.34
2023-05-02T10:50:47.998Z,15.20
2023-05-02T10:51:48.046Z,15.12
2023-05-02T10:52:48.091Z,15.12
2023-05-02T10:53:48.149Z,14.83
2023-05-02T10:54:48.714Z,14.87
2023-05-02T10:55:49.306Z,14.66
2023-05-02T10:56:48.262Z,14.34
2023-05-02T10:57:48.320Z,14.35
2023-05-02T10:58:48.727Z,14.33
2023-05-02T10:59:48.414Z,14.34
2023-05-02T11:00:49.221Z,13.91
2023-05-02T11:01:48.533Z,14.02
2023-05-02T11:02:48.627Z,13.89
2023-05-02T11:03:48.586Z,13.87
2023-05-02T11:04:48.635Z,13.80
2023-05-02T11:05:48.697Z,13.94
2023-05-02T11:06:48.789Z,13.84
2023-05-02T11:07:48.789Z,13.63
2023-05-02T11:08:48.842Z,13.43
2023-05-02T11:09:48.876Z,13.36
2023-05-02T11:10:48.955Z,13.07
2023-05-02T11:11:48.994Z,12.95
2023-05-02T11:12:49.171Z,12.85
2023-05-02T11:13:49.230Z,13.08
2023-05-02T11:14:49.152Z,12.72
2023-05-02T11:15:49.282Z,12.65
2023-05-02T11:16:49.429Z,12.73
2023-05-02T11:17:49.341Z,12.70
2023-05-02T11:18:49.405Z,12.20
2023-05-02T11:19:49.411Z,12.14
2023-05-02T11:20:49.469Z,12.15
2023-05-02T11:21:50.236Z,11.80
2023-05-02T11:22:49.567Z,11.82
2023-05-02T11:23:49.606Z,11.78
2023-05-02T11:24:49.715Z,11.82
2023-05-02T11:25:49.704Z,11.78
2023-05-02T11:26:49.781Z,11.52
2023-05-02T11:27:49.820Z,11.46
2023-05-02T11:28:49.865Z,11.24
2023-05-02T11:29:49.913Z,11.25
2023-05-02T11:30:49.977Z,11.54
2023-05-02T11:31:50.098Z,11.16
2023-05-02T11:32:50.204Z,11.06
2023-05-02T11:33:50.110Z,11.10
2023-05-02T11:34:50.234Z,10.95
2023-05-02T11:35:50.203Z,10.97
2023-05-02T11:36:50.312Z,10.95
2023-05-02T11:37:50.303Z,10.76
2023-05-02T11:38:50.336Z,10.70
2023-05-02T11:39:50.393Z,10.59
2023-05-02T11:40:50.443Z,10.53
2023-05-02T11:41:50.508Z,10.59
2023-05-02T11:42:50.585Z,10.41
2023-05-02T11:43:50.756Z,10.46
2023-05-02T11:44:50.649Z,10.18
2023-05-02T11:45:50.769Z,10.19
2023-05-02T11:46:50.724Z,10.25
2023-05-02T11:47:50.767Z,10.25
2023-05-02T11:48:50.807Z,9.43
2023-05-02T11:49:51.835Z,8.80
2023-05-02T11:50:51.021Z,9.62
2023-05-02T11:51:50.820Z,9.99
2023-05-02T11:52:50.831Z,8.75
2023-05-02T11:53:50.837Z,8.43
2023-05-02T11:54:50.827Z,7.66
2023-05-02T11:55:51.263Z,7.08
2023-05-02T11:56:50.834Z,7.08
2023-05-02T11:57:50.826Z,6.72
2023-05-02T11:58:50.828Z,6.88
2023-05-02T11:59:50.822Z,6.86
2023-05-02T12:00:50.810Z,6.92
2023-05-02T12:01:50.811Z,6.87
2023-05-02T12:02:50.873Z,6.92
2023-05-02T12:03:50.851Z,6.67
2023-05-02T12:04:50.794Z,6.72
2023-05-02T12:05:50.829Z,6.68
2023-05-02T12:06:50.844Z,6.74
2023-05-02T12:07:50.790Z,6.65
2023-05-02T12:08:50.796Z,6.63
2023-05-02T12:09:50.798Z,6.76
2023-05-02T12:10:50.814Z,6.58
2023-05-02T12:11:50.832Z,6.43
2023-05-02T12:12:50.809Z,6.37
2023-05-02T12:13:50.993Z,6.34
2023-05-02T12:14:50.831Z,6.18
2023-05-02T12:15:50.847Z,6.24
2023-05-02T12:16:50.812Z,6.31
2023-05-02T12:17:50.880Z,6.14
2023-05-02T12:18:50.900Z,6.17
2023-05-02T12:19:50.833Z,6.09
2023-05-02T12:20:50.846Z,6.18
2023-05-02T12:21:50.847Z,6.10
2023-05-02T12:22:50.851Z,6.07
2023-05-02T12:23:50.875Z,6.07
2023-05-02T12:24:50.853Z,5.96
2023-05-02T12:25:50.856Z,6.02
2023-05-02T12:26:51.848Z,5.98
2023-05-02T12:27:50.910Z,5.97
2023-05-02T12:28:50.885Z,5.89
2023-05-02T12:29:50.867Z,5.84
2023-05-02T12:30:50.855Z,5.87
2023-05-02T12:31:50.907Z,5.96
2023-05-02T12:32:50.892Z,5.82
2023-05-02T12:33:51.207Z,5.80
2023-05-02T12:34:50.873Z,5.58
2023-05-02T12:35:50.884Z,5.60
2023-05-02T12:36:50.897Z,5.57
2023-05-02T12:37:50.892Z,5.54
2023-05-02T12:38:50.893Z,5.37
2023-05-02T12:39:50.892Z,5.34
2023-05-02T12:40:50.895Z,5.24
2023-05-02T12:41:50.912Z,5.25
2023-05-02T12:42:50.918Z,5.13
2023-05-02T12:43:50.916Z,5.07
2023-05-02T12:44:50.929Z,5.10
2023-05-02T12:45:50.938Z,4.91
2023-05-02T12:46:51.013Z,4.93
2023-05-02T12:47:51.019Z,4.88
2023-05-02T12:48:51.057Z,4.76
2023-05-02T12:49:50.971Z,4.66
2023-05-02T12:50:50.971Z,4.74
2023-05-02T12:51:50.964Z,4.76
2023-05-02T12:52:51.043Z,4.66
2023-05-02T12:53:50.978Z,4.69
2023-05-02T12:54:50.998Z,4.66
2023-05-02T12:55:50.994Z,4.60
2023-05-02T12:56:51.068Z,4.53
2023-05-02T12:57:51.002Z,4.41
2023-05-02T12:58:51.138Z,4.41
2023-05-02T12:59:51.016Z,4.54
2023-05-02T13:00:51.069Z,4.52
2023-05-02T13:01:51.038Z,4.48
2023-05-02T13:02:51.119Z,4.37
2023-05-02T13:03:51.260Z,4.39
2023-05-02T13:04:51.070Z,4.36
2023-05-02T13:05:51.089Z,4.44
2023-05-02T13:06:51.213Z,4.35
2023-05-02T13:07:51.091Z,4.37
2023-05-02T13:08:51.094Z,4.38
2023-05-02T13:09:51.103Z,4.37
2023-05-02T13:10:51.128Z,4.34
2023-05-02T13:11:51.130Z,4.40
2023-05-02T13:12:51.136Z,4.30